Aérodrome :
LOGIN :

S'inscrire | Disclaimer

   EN    FR    IT 

 










Légende :    VFR   VFR Marginal   IFR   IFR Intensif   IFR Très Intensif
Visi : 
Plafond : 
>= 8 km
>= 3000ft
5 à 8 km
1000 à 3000 ft
1500m à 5 km
500 à 1000 ft
800 à 1500m
200 à 500 ft
< 800m
< 200 ft
Symboles :   Orages  Brouillard  Fortes neiges  Fortes précipitations  Vent > 20 kt
SIGMETs :   Divers  Orages  Givrage  Turbulence  Onde Orograph.  Cendres Volcan.






- Altitude de l'aérodrome : 55 ft
- Code IATA : DSA


EGCN - Robin Hood Doncaster Sheffield

DERNIER METAR :
  • 281250Z 15015KT 9999 RA BKN007 BKN011 04/03 Q0999

METARs EXPIRÉS :
  • 281220Z 16014G26KT 8000 RA BKN007 BKN011 04/03 Q1000
  • 281150Z 15013KT 9999 RA BKN007 BKN010 03/03 Q1002
  • 281120Z 14013G25KT 9999 RA BKN007 BKN011 03/02 Q1003
  • 281050Z 15010KT 110V180 9000 -RA BKN007 BKN011 03/02 Q1004
  • 281020Z 16014KT 9999 -RA BKN009 BKN014 03/02 Q1005

TAF TAF EGCN
Valide du 28 à 12h jusqu'au 29 à 12h UTC


281101Z 2812/2912 15012KT 9999 SCT007 BKN015
TEMPO 2812/2818 4000 RADZ BKN008
PROB30
TEMPO 2813/2822 18016G26KT
BECMG 2814/2817 21012KT
TEMPO 2818/2902 8000 -RA BKN010
BECMG 2822/2901 18016G26KT
TEMPO 2902/2909 4000 RA BKN008
PROB30
TEMPO 2903/2908 18022G36KT 1400 +SHRA



MET'MAP, la Météo Aéronautique d'un coup d'oeil ! - Copyright ORBIFLY Décembre 2007 - Disclaimer

ORBIFLY MET'MAP TEAM :

Programmation & Développement : Alexandra Zaïnal
Sur une idée originale de : Baudouin d'Aumeries
Assistance à la programmation : Marc-Olivier Méhu
Soutien technique & logistique : Manuel Goepfert

Contact : metmap@orbifly.com




SOURCES & CREDITS :

   NOAA